createdAt,value
2023-10-17T00:00:14.712Z,97903.22
2023-10-17T00:02:42.687Z,97903.31
2023-10-17T00:05:11.535Z,97899.16
2023-10-17T00:07:45.033Z,97896.78
2023-10-17T00:10:20.138Z,97886.72
2023-10-17T00:12:53.994Z,97897.66
2023-10-17T00:15:36.870Z,97893.53
2023-10-17T00:18:17.082Z,97890.38
2023-10-17T00:20:45.608Z,97890.84
2023-10-17T00:23:16.545Z,97893.13
2023-10-17T00:25:46.708Z,97888.94
2023-10-17T00:28:14.638Z,97884.06
2023-10-17T00:30:45.440Z,97873.53
2023-10-17T00:33:14.180Z,97874.41
2023-10-17T00:35:47.685Z,97872.41
2023-10-17T00:38:16.809Z,97870.88
2023-10-17T00:40:52.518Z,97874.81
2023-10-17T00:43:21.148Z,97876.69
2023-10-17T00:45:49.231Z,97880.13
2023-10-17T00:48:19.283Z,97873.63
2023-10-17T00:50:48.460Z,97874.78
2023-10-17T00:53:16.504Z,97876.72
2023-10-17T00:55:51.598Z,97870.09
2023-10-17T00:58:25.733Z,97865.00
2023-10-17T01:01:17.591Z,97867.66
2023-10-17T01:03:46.336Z,97866.00
2023-10-17T01:06:30.428Z,97863.91
2023-10-17T01:09:08.727Z,97862.16
2023-10-17T01:11:39.807Z,97856.53
2023-10-17T01:14:07.701Z,97858.00
2023-10-17T01:16:35.934Z,97862.13
2023-10-17T01:19:06.317Z,97861.25
2023-10-17T01:21:35.271Z,97858.19
2023-10-17T01:24:06.415Z,97864.00
2023-10-17T01:26:39.063Z,97871.06
2023-10-17T01:29:13.297Z,97866.00
2023-10-17T01:31:44.058Z,97870.88
2023-10-17T01:34:12.966Z,97865.03
2023-10-17T01:36:40.729Z,97872.13
2023-10-17T01:39:09.889Z,97867.88
2023-10-17T01:41:39.600Z,97856.97
2023-10-17T01:44:09.788Z,97852.78
2023-10-17T01:46:40.008Z,97862.78
2023-10-17T01:49:14.315Z,97861.56
2023-10-17T01:51:43.806Z,97862.91
2023-10-17T01:54:15.912Z,97863.88
2023-10-17T01:56:48.773Z,97863.25
2023-10-17T01:59:27.320Z,97851.25
2023-10-17T02:02:00.889Z,97869.75
2023-10-17T02:04:29.013Z,97858.22
2023-10-17T02:06:58.603Z,97863.22
2023-10-17T02:09:28.905Z,97866.63
2023-10-17T02:12:01.651Z,97864.31
2023-10-17T02:14:29.925Z,97862.88
2023-10-17T02:16:59.224Z,97861.66
2023-10-17T02:19:32.986Z,97857.53
2023-10-17T02:22:02.134Z,97861.22
2023-10-17T02:24:33.657Z,97853.56
2023-10-17T02:27:10.023Z,97847.53
2023-10-17T02:29:43.047Z,97847.59
2023-10-17T02:32:13.525Z,97853.03
2023-10-17T02:34:44.269Z,97863.84
2023-10-17T02:37:12.877Z,97848.19
2023-10-17T02:39:40.769Z,97844.41
2023-10-17T02:42:09.073Z,97837.78
2023-10-17T02:44:41.363Z,97841.22
2023-10-17T02:47:12.470Z,97847.13
2023-10-17T02:49:41.456Z,97847.59
2023-10-17T02:52:09.136Z,97849.78
2023-10-17T02:54:55.272Z,97855.44
2023-10-17T02:57:24.634Z,97856.72
2023-10-17T02:59:53.282Z,97854.69
2023-10-17T03:02:38.001Z,97847.44
2023-10-17T03:05:12.868Z,97853.78
2023-10-17T03:07:43.748Z,97846.81
2023-10-17T03:10:21.722Z,97832.56
2023-10-17T03:12:56.960Z,97836.91
2023-10-17T03:15:30.601Z,97846.53
2023-10-17T03:18:05.112Z,97840.66
2023-10-17T03:20:42.314Z,97845.63
2023-10-17T03:23:11.205Z,97845.19
2023-10-17T03:25:39.042Z,97852.41
2023-10-17T03:28:10.472Z,97848.34
2023-10-17T03:30:38.339Z,97848.97
2023-10-17T03:33:10.349Z,97857.47
2023-10-17T03:35:40.294Z,97846.47
2023-10-17T03:38:10.167Z,97844.84
2023-10-17T03:40:42.232Z,97847.84
2023-10-17T03:43:13.524Z,97835.69
2023-10-17T03:45:45.204Z,97827.69
2023-10-17T03:48:16.724Z,97824.91
2023-10-17T03:50:47.248Z,97828.38
2023-10-17T03:53:30.621Z,97828.63
2023-10-17T03:56:02.177Z,97839.16
2023-10-17T03:58:45.280Z,97840.56
2023-10-17T04:01:13.543Z,97836.50
2023-10-17T04:03:41.354Z,97830.69
2023-10-17T04:06:09.267Z,97818.47
2023-10-17T04:08:39.210Z,97825.41
2023-10-17T04:11:16.034Z,97823.13
2023-10-17T04:13:44.706Z,97834.44
2023-10-17T04:16:18.146Z,97831.47
2023-10-17T04:18:56.232Z,97828.81
2023-10-17T04:21:28.902Z,97830.22
2023-10-17T04:23:57.100Z,97831.03
2023-10-17T04:26:28.850Z,97833.06
2023-10-17T04:28:56.985Z,97838.16
2023-10-17T04:31:27.500Z,97831.91
2023-10-17T04:34:06.483Z,97823.78
2023-10-17T04:36:40.474Z,97824.94
2023-10-17T04:39:20.104Z,97830.38
2023-10-17T04:41:54.414Z,97824.03
2023-10-17T04:44:40.774Z,97831.56
2023-10-17T04:47:26.218Z,97830.69
2023-10-17T04:49:54.729Z,97825.47
2023-10-17T04:52:29.890Z,97828.78
2023-10-17T04:55:12.445Z,97833.72
2023-10-17T04:58:00.496Z,97833.22
2023-10-17T05:00:48.595Z,97836.91
2023-10-17T05:03:28.675Z,97841.22
2023-10-17T05:06:14.917Z,97838.59
2023-10-17T05:09:01.880Z,97846.66
2023-10-17T05:11:49.057Z,97850.13
2023-10-17T05:14:35.440Z,97863.84
2023-10-17T05:17:21.857Z,97862.00
2023-10-17T05:20:08.224Z,97861.00
2023-10-17T05:22:54.544Z,97863.63
2023-10-17T05:25:44.021Z,97855.72
2023-10-17T05:28:30.343Z,97871.38
2023-10-17T05:31:28.824Z,97870.41
2023-10-17T05:34:15.205Z,97864.97
2023-10-17T05:37:01.583Z,97862.19
2023-10-17T05:39:49.514Z,97866.72
2023-10-17T05:42:36.236Z,97860.03
2023-10-17T05:45:22.879Z,97857.22
2023-10-17T05:48:09.425Z,97862.34
2023-10-17T05:50:55.888Z,97873.09
2023-10-17T05:53:42.440Z,97874.91
2023-10-17T05:56:28.820Z,97877.06
2023-10-17T05:59:15.275Z,97880.19
2023-10-17T06:02:01.638Z,97872.41
2023-10-17T06:04:48.029Z,97869.50
2023-10-17T06:07:34.675Z,97871.34
2023-10-17T06:10:21.015Z,97865.88
2023-10-17T06:13:07.445Z,97869.34
2023-10-17T06:15:54.070Z,97876.97
2023-10-17T06:18:28.046Z,97871.41
2023-10-17T06:21:08.987Z,97878.06
2023-10-17T06:23:52.098Z,97874.72
2023-10-17T06:26:41.661Z,97872.72
2023-10-17T06:29:21.906Z,97868.19
2023-10-17T06:31:50.730Z,97866.66
2023-10-17T06:34:19.249Z,97870.34
2023-10-17T06:36:51.781Z,97864.53
2023-10-17T06:39:20.659Z,97859.03
2023-10-17T06:41:48.719Z,97859.84
2023-10-17T06:44:27.763Z,97853.59
2023-10-17T06:47:05.297Z,97858.59
2023-10-17T06:49:33.103Z,97858.63
2023-10-17T06:52:13.257Z,97858.81
2023-10-17T06:54:44.796Z,97851.63
2023-10-17T06:57:22.025Z,97852.38
2023-10-17T06:59:53.768Z,97850.19
2023-10-17T07:02:43.056Z,97840.34
2023-10-17T07:05:11.160Z,97847.66
2023-10-17T07:07:43.251Z,97851.53
2023-10-17T07:10:29.835Z,97838.22
2023-10-17T07:13:40.507Z,97839.00
2023-10-17T07:16:17.782Z,97840.97
2023-10-17T07:18:46.083Z,97843.81
2023-10-17T07:21:18.870Z,97838.94
2023-10-17T07:23:47.235Z,97834.34
2023-10-17T07:26:30.496Z,97831.09
2023-10-17T07:28:58.282Z,97833.25
2023-10-17T07:31:26.083Z,97835.22
2023-10-17T07:34:17.830Z,97831.22
2023-10-17T07:36:49.087Z,97832.63
2023-10-17T07:39:30.940Z,97815.88
2023-10-17T07:41:59.337Z,97818.84
2023-10-17T07:44:27.982Z,97815.53
2023-10-17T07:47:22.358Z,97818.28
2023-10-17T07:49:50.206Z,97810.75
2023-10-17T07:52:18.120Z,97811.72
2023-10-17T07:54:59.447Z,97806.97
2023-10-17T07:57:37.370Z,97799.28
2023-10-17T08:00:24.381Z,97808.00
2023-10-17T08:02:53.289Z,97806.81
2023-10-17T08:05:24.408Z,97800.06
2023-10-17T08:08:02.369Z,97806.78
2023-10-17T08:10:36.578Z,97815.88
2023-10-17T08:13:04.946Z,97808.53
2023-10-17T08:15:53.712Z,97800.22
2023-10-17T08:18:24.883Z,97802.59
2023-10-17T08:21:15.880Z,97795.28
2023-10-17T08:23:44.159Z,97788.06
2023-10-17T08:26:12.230Z,97793.88
2023-10-17T08:28:46.036Z,97790.13
2023-10-17T08:31:21.071Z,97789.81
2023-10-17T08:34:09.289Z,97788.00
2023-10-17T08:36:43.220Z,97785.41
2023-10-17T08:39:32.044Z,97791.41
2023-10-17T08:42:07.243Z,97776.13
2023-10-17T08:44:36.349Z,97785.88
2023-10-17T08:47:06.666Z,97780.66
2023-10-17T08:49:35.003Z,97783.84
2023-10-17T08:52:05.016Z,97777.53
2023-10-17T08:54:34.284Z,97779.97
2023-10-17T08:57:02.607Z,97779.44
2023-10-17T08:59:42.502Z,97790.69
2023-10-17T09:02:30.303Z,97780.19
2023-10-17T09:05:06.793Z,97776.41
2023-10-17T09:07:43.754Z,97777.47
2023-10-17T09:10:37.767Z,97770.69
2023-10-17T09:13:18.935Z,97772.38
2023-10-17T09:16:00.901Z,97772.41
2023-10-17T09:18:29.865Z,97761.84
2023-10-17T09:20:58.754Z,97763.44
2023-10-17T09:23:28.404Z,97764.22
2023-10-17T09:26:02.182Z,97754.38
2023-10-17T09:28:30.285Z,97756.53
2023-10-17T09:31:07.991Z,97759.06
2023-10-17T09:33:37.182Z,97744.44
2023-10-17T09:36:05.689Z,97742.53
2023-10-17T09:38:36.288Z,97738.63
2023-10-17T09:41:17.842Z,97739.47
2023-10-17T09:43:46.867Z,97736.16
2023-10-17T09:46:14.960Z,97733.31
2023-10-17T09:48:46.276Z,97729.41
2023-10-17T09:51:21.099Z,97724.47
2023-10-17T09:53:55.102Z,97712.66
2023-10-17T09:56:30.116Z,97718.53
2023-10-17T09:59:13.340Z,97718.28
2023-10-17T10:01:41.322Z,97728.56
2023-10-17T10:04:09.243Z,97723.25
2023-10-17T10:06:38.311Z,97725.53
2023-10-17T10:09:07.260Z,97702.97
2023-10-17T10:11:50.532Z,97709.38
2023-10-17T10:14:24.654Z,97698.38
2023-10-17T10:16:57.853Z,97689.13
2023-10-17T10:19:29.202Z,97699.78
2023-10-17T10:22:01.219Z,97697.75
2023-10-17T10:24:36.156Z,97710.22
2023-10-17T10:27:33.919Z,97700.94
2023-10-17T10:30:32.773Z,97697.03
2023-10-17T10:33:00.753Z,97697.34
2023-10-17T10:35:30.121Z,97694.66
2023-10-17T10:38:01.154Z,97696.25
2023-10-17T10:40:33.372Z,97694.91
2023-10-17T10:43:02.581Z,97690.75
2023-10-17T10:45:51.731Z,97697.59
2023-10-17T10:48:20.140Z,97683.81
2023-10-17T10:50:51.135Z,97684.41
2023-10-17T10:53:37.860Z,97676.81
2023-10-17T10:56:16.501Z,97671.03
2023-10-17T10:58:49.156Z,97679.63
2023-10-17T11:01:17.348Z,97676.66
2023-10-17T11:03:48.024Z,97670.59
2023-10-17T11:06:18.953Z,97660.91
2023-10-17T11:08:49.062Z,97668.38
2023-10-17T11:11:18.032Z,97657.47
2023-10-17T11:13:47.531Z,97662.41
2023-10-17T11:16:19.104Z,97651.56
2023-10-17T11:18:47.106Z,97650.09
2023-10-17T11:21:17.875Z,97648.47
2023-10-17T11:23:51.716Z,97637.78
2023-10-17T11:26:28.915Z,97638.47
2023-10-17T11:28:57.865Z,97634.84
2023-10-17T11:31:26.492Z,97627.13
2023-10-17T11:33:56.017Z,97627.22
2023-10-17T11:36:24.491Z,97625.41
2023-10-17T11:39:06.588Z,97622.81
2023-10-17T11:41:47.336Z,97630.16
2023-10-17T11:44:17.057Z,97615.16
2023-10-17T11:46:57.488Z,97613.97
2023-10-17T11:49:28.430Z,97608.75
2023-10-17T11:52:12.448Z,97605.41
2023-10-17T11:55:14.718Z,97589.59
2023-10-17T11:57:47.255Z,97590.38
2023-10-17T12:00:18.017Z,97591.22
2023-10-17T12:02:49.160Z,97589.88
2023-10-17T12:05:21.345Z,97588.78
2023-10-17T12:07:51.172Z,97590.38
2023-10-17T12:10:19.438Z,97588.78
2023-10-17T12:12:47.872Z,97599.59
2023-10-17T12:15:15.803Z,97583.38
2023-10-17T12:17:45.303Z,97571.63
2023-10-17T12:20:13.379Z,97587.25
2023-10-17T12:22:41.788Z,97586.28
2023-10-17T12:25:17.353Z,97582.59
2023-10-17T12:27:51.376Z,97577.69
2023-10-17T12:30:24.550Z,97581.06
2023-10-17T12:32:52.796Z,97573.75
2023-10-17T12:35:22.797Z,97576.94
2023-10-17T12:37:53.859Z,97573.75
2023-10-17T12:40:24.768Z,97580.28
2023-10-17T12:42:53.062Z,97568.81
2023-10-17T12:45:21.690Z,97579.59
2023-10-17T12:47:50.062Z,97580.06
2023-10-17T12:50:19.538Z,97581.97
2023-10-17T12:52:48.431Z,97578.84
2023-10-17T12:55:16.325Z,97583.97
2023-10-17T12:57:45.224Z,97578.84
2023-10-17T13:00:15.867Z,97581.25
2023-10-17T13:02:44.251Z,97592.38
2023-10-17T13:05:13.020Z,97579.31
2023-10-17T13:07:41.846Z,97575.72
2023-10-17T13:10:10.464Z,97579.13
2023-10-17T13:12:38.440Z,97572.31
2023-10-17T13:15:10.688Z,97583.53
2023-10-17T13:17:38.777Z,97578.06
2023-10-17T13:20:14.271Z,97581.44
2023-10-17T13:22:50.720Z,97581.28
2023-10-17T13:25:21.182Z,97588.22
2023-10-17T13:27:49.038Z,97584.28
2023-10-17T13:30:16.881Z,97582.47
2023-10-17T13:32:45.993Z,97582.88
2023-10-17T13:35:13.814Z,97577.31
2023-10-17T13:37:52.576Z,97577.66
2023-10-17T13:40:20.949Z,97568.19
2023-10-17T13:42:51.735Z,97569.09
2023-10-17T13:45:22.495Z,97566.97
2023-10-17T13:47:51.121Z,97562.03
2023-10-17T13:50:20.286Z,97563.41
2023-10-17T13:52:49.312Z,97557.63
2023-10-17T13:55:29.266Z,97554.94
2023-10-17T13:58:02.332Z,97550.38
2023-10-17T14:00:49.110Z,97553.56
2023-10-17T14:03:18.690Z,97561.16
2023-10-17T14:05:49.741Z,97562.75
2023-10-17T14:08:18.451Z,97554.63
2023-10-17T14:10:48.271Z,97562.72
2023-10-17T14:13:18.514Z,97554.22
2023-10-17T14:15:46.534Z,97555.31
2023-10-17T14:18:14.582Z,97560.38
2023-10-17T14:21:01.459Z,97561.91
2023-10-17T14:23:31.575Z,97557.09
2023-10-17T14:26:04.480Z,97550.94
2023-10-17T14:28:32.294Z,97559.31
2023-10-17T14:31:03.050Z,97555.16
2023-10-17T14:33:34.120Z,97545.47
2023-10-17T14:36:12.712Z,97549.09
2023-10-17T14:38:40.507Z,97552.25
2023-10-17T14:41:09.612Z,97545.50
2023-10-17T14:43:37.418Z,97552.25
2023-10-17T14:46:09.399Z,97546.63
2023-10-17T14:48:41.943Z,97545.28
2023-10-17T14:51:13.246Z,97543.38
2023-10-17T14:53:51.089Z,97554.25
2023-10-17T14:56:22.216Z,97551.53
2023-10-17T14:58:51.090Z,97552.78
2023-10-17T15:01:19.310Z,97540.84
2023-10-17T15:03:47.987Z,97544.16
2023-10-17T15:06:16.562Z,97545.56
2023-10-17T15:08:44.654Z,97555.00
2023-10-17T15:11:12.603Z,97542.56
2023-10-17T15:13:40.407Z,97557.81
2023-10-17T15:16:17.630Z,97567.72
2023-10-17T15:18:45.761Z,97562.22
2023-10-17T15:21:14.654Z,97564.19
2023-10-17T15:23:43.189Z,97550.66
2023-10-17T15:26:13.815Z,97550.41
2023-10-17T15:28:50.052Z,97552.31
2023-10-17T15:31:18.167Z,97550.53
2023-10-17T15:33:46.445Z,97556.03
2023-10-17T15:36:14.651Z,97559.06
2023-10-17T15:38:42.701Z,97552.69
2023-10-17T15:41:13.823Z,97556.97
2023-10-17T15:43:41.657Z,97561.34
2023-10-17T15:46:13.563Z,97561.13
2023-10-17T15:48:43.731Z,97569.88
2023-10-17T15:51:20.101Z,97569.13
2023-10-17T15:53:48.069Z,97571.25
2023-10-17T15:56:15.875Z,97560.75
2023-10-17T15:58:44.956Z,97568.28
2023-10-17T16:01:14.411Z,97570.09
2023-10-17T16:03:44.260Z,97568.91
2023-10-17T16:06:12.360Z,97571.53
2023-10-17T16:08:42.039Z,97575.38
2023-10-17T16:11:11.005Z,97576.72
2023-10-17T16:13:39.452Z,97586.56
2023-10-17T16:16:08.099Z,97585.09
2023-10-17T16:18:39.098Z,97586.56
2023-10-17T16:21:10.622Z,97587.91
2023-10-17T16:23:39.313Z,97587.00
2023-10-17T16:26:07.094Z,97598.94
2023-10-17T16:28:34.920Z,97587.81
2023-10-17T16:31:04.715Z,97597.59
2023-10-17T16:33:32.924Z,97590.84
2023-10-17T16:36:01.530Z,97603.56
2023-10-17T16:38:29.796Z,97607.38
2023-10-17T16:40:57.757Z,97602.56
2023-10-17T16:43:25.876Z,97604.91
2023-10-17T16:45:56.903Z,97608.06
2023-10-17T16:48:24.730Z,97606.28
2023-10-17T16:50:54.887Z,97617.41
2023-10-17T16:53:22.969Z,97613.47
2023-10-17T16:55:50.693Z,97613.25
2023-10-17T16:58:19.166Z,97611.31
2023-10-17T17:00:47.209Z,97625.72
2023-10-17T17:03:15.187Z,97619.53
2023-10-17T17:05:43.998Z,97624.84
2023-10-17T17:08:11.828Z,97620.31
2023-10-17T17:10:48.330Z,97625.06
2023-10-17T17:13:17.841Z,97619.34
2023-10-17T17:15:48.419Z,97626.97
2023-10-17T17:20:47.234Z,97614.47
2023-10-17T17:23:14.918Z,97623.47
2023-10-17T17:25:43.156Z,97605.81
2023-10-17T17:28:11.897Z,97618.41
2023-10-17T17:30:42.003Z,97610.94
2023-10-17T17:33:10.382Z,97611.28
2023-10-17T17:35:38.252Z,97616.31
2023-10-17T17:38:06.713Z,97618.75
2023-10-17T17:40:35.903Z,97624.41
2023-10-17T17:43:04.846Z,97618.81
2023-10-17T17:45:32.815Z,97625.91
2023-10-17T17:48:01.192Z,97618.66
2023-10-17T17:50:30.968Z,97627.25
2023-10-17T17:52:58.769Z,97626.63
2023-10-17T17:55:26.846Z,97628.63
2023-10-17T17:57:54.679Z,97626.94
2023-10-17T18:00:23.930Z,97620.03
2023-10-17T18:02:51.729Z,97627.66
2023-10-17T18:05:21.784Z,97623.91
2023-10-17T18:07:50.072Z,97627.50
2023-10-17T18:10:17.995Z,97640.84
2023-10-17T18:12:45.928Z,97626.63
2023-10-17T18:15:13.791Z,97626.50
2023-10-17T18:17:41.685Z,97622.91
2023-10-17T18:20:10.195Z,97632.94
2023-10-17T18:22:38.050Z,97634.31
2023-10-17T18:25:06.896Z,97637.13
2023-10-17T18:27:35.081Z,97642.63
2023-10-17T18:30:03.177Z,97636.41
2023-10-17T18:32:30.986Z,97635.69
2023-10-17T18:34:58.721Z,97633.81
2023-10-17T18:37:26.584Z,97636.97
2023-10-17T18:39:54.758Z,97641.88
2023-10-17T18:42:22.603Z,97652.63
2023-10-17T18:44:59.885Z,97647.03
2023-10-17T18:47:38.848Z,97643.88
2023-10-17T18:50:07.984Z,97647.66
2023-10-17T18:52:35.791Z,97641.56
2023-10-17T18:55:10.288Z,97639.28
2023-10-17T18:57:42.305Z,97638.00
2023-10-17T19:00:15.817Z,97645.16
2023-10-17T19:02:44.416Z,97646.88
2023-10-17T19:05:12.369Z,97647.03
2023-10-17T19:07:40.401Z,97646.59
2023-10-17T19:10:10.868Z,97649.25
2023-10-17T19:12:51.228Z,97640.13
2023-10-17T19:15:24.303Z,97641.78
2023-10-17T19:17:53.020Z,97646.34
2023-10-17T19:20:22.082Z,97649.88
2023-10-17T19:22:50.038Z,97651.47
2023-10-17T19:25:17.981Z,97658.66
2023-10-17T19:27:45.958Z,97658.22
2023-10-17T19:30:14.479Z,97657.91
2023-10-17T19:32:42.688Z,97661.38
2023-10-17T19:35:12.041Z,97660.06
2023-10-17T19:37:40.215Z,97669.31
2023-10-17T19:40:09.514Z,97666.25
2023-10-17T19:42:37.433Z,97661.78
2023-10-17T19:45:06.509Z,97659.59
2023-10-17T19:47:36.136Z,97660.06
2023-10-17T19:50:04.630Z,97661.66
2023-10-17T19:52:32.445Z,97656.59
2023-10-17T19:55:00.208Z,97662.94
2023-10-17T19:57:28.729Z,97662.34
2023-10-17T19:59:56.632Z,97652.47
2023-10-17T20:02:24.344Z,97665.66
2023-10-17T20:04:52.158Z,97669.25
2023-10-17T20:07:22.280Z,97672.00
2023-10-17T20:09:52.918Z,97673.47
2023-10-17T20:12:21.232Z,97674.28
2023-10-17T20:14:48.957Z,97677.78
2023-10-17T20:17:16.697Z,97661.94
2023-10-17T20:19:44.450Z,97676.19
2023-10-17T20:22:12.179Z,97674.06
2023-10-17T20:24:39.929Z,97666.72
2023-10-17T20:27:07.772Z,97661.94
2023-10-17T20:29:35.576Z,97662.72
2023-10-17T20:32:03.447Z,97671.97
2023-10-17T20:34:31.259Z,97670.69
2023-10-17T20:36:59.143Z,97667.53
2023-10-17T20:39:30.876Z,97662.63
2023-10-17T20:41:59.632Z,97662.88
2023-10-17T20:44:30.570Z,97655.19
2023-10-17T20:46:58.556Z,97654.03
2023-10-17T20:49:26.445Z,97661.22
2023-10-17T20:51:54.365Z,97659.84
2023-10-17T20:54:22.208Z,97661.34
2023-10-17T20:56:49.906Z,97656.19
2023-10-17T20:59:19.348Z,97662.53
2023-10-17T21:01:47.106Z,97653.84
2023-10-17T21:04:15.914Z,97651.44
2023-10-17T21:06:43.803Z,97650.75
2023-10-17T21:09:11.618Z,97648.31
2023-10-17T21:11:40.316Z,97652.72
2023-10-17T21:14:08.630Z,97647.00
2023-10-17T21:16:37.164Z,97650.31
2023-10-17T21:19:06.106Z,97641.97
2023-10-17T21:21:34.064Z,97641.84
2023-10-17T21:24:02.507Z,97644.78
2023-10-17T21:26:30.895Z,97643.88
2023-10-17T21:28:59.060Z,97639.72
2023-10-17T21:31:26.833Z,97639.13
2023-10-17T21:33:54.716Z,97634.81
2023-10-17T21:36:22.580Z,97640.06
2023-10-17T21:38:51.964Z,97634.25
2023-10-17T21:41:19.789Z,97631.19
2023-10-17T21:43:47.575Z,97636.53
2023-10-17T21:46:15.387Z,97633.38
2023-10-17T21:48:46.553Z,97632.81
2023-10-17T21:51:16.186Z,97637.69
2023-10-17T21:53:44.117Z,97637.91
2023-10-17T21:56:12.239Z,97640.41
2023-10-17T21:58:40.070Z,97638.41
2023-10-17T22:01:17.426Z,97624.91
2023-10-17T22:03:45.404Z,97627.31
2023-10-17T22:06:15.988Z,97622.34
2023-10-17T22:08:45.684Z,97622.63
2023-10-17T22:11:17.252Z,97616.59
2023-10-17T22:13:46.897Z,97621.75
2023-10-17T22:16:15.514Z,97604.06
2023-10-17T22:18:44.809Z,97609.66
2023-10-17T22:21:13.039Z,97595.75
2023-10-17T22:23:41.252Z,97594.38
2023-10-17T22:26:14.659Z,97591.38
2023-10-17T22:28:42.636Z,97581.16
2023-10-17T22:31:10.950Z,97572.47
2023-10-17T22:33:39.755Z,97566.72
2023-10-17T22:36:12.838Z,97571.97
2023-10-17T22:38:41.036Z,97569.16
2023-10-17T22:41:08.807Z,97560.13
2023-10-17T22:43:36.551Z,97564.91
2023-10-17T22:46:09.675Z,97574.59
2023-10-17T22:48:38.353Z,97569.28
2023-10-17T22:51:06.529Z,97582.59
2023-10-17T22:53:37.855Z,97570.88
2023-10-17T22:56:10.557Z,97580.47
2023-10-17T22:58:41.475Z,97581.75
2023-10-17T23:01:13.415Z,97577.94
2023-10-17T23:03:42.497Z,97585.50
2023-10-17T23:06:11.514Z,97581.75
2023-10-17T23:08:39.430Z,97590.94
2023-10-17T23:11:07.671Z,97577.94
2023-10-17T23:13:35.505Z,97583.03
2023-10-17T23:16:08.974Z,97588.50
2023-10-17T23:18:42.890Z,97584.47
2023-10-17T23:21:10.899Z,97585.50
2023-10-17T23:23:39.533Z,97583.91
2023-10-17T23:26:07.432Z,97591.63
2023-10-17T23:28:35.692Z,97590.06
2023-10-17T23:31:03.610Z,97596.81
2023-10-17T23:33:31.392Z,97598.84
2023-10-17T23:35:59.322Z,97593.13
2023-10-17T23:38:27.106Z,97592.63
2023-10-17T23:40:55.024Z,97598.31
2023-10-17T23:43:23.151Z,97600.91
2023-10-17T23:45:54.338Z,97598.09
2023-10-17T23:48:27.878Z,97599.25
2023-10-17T23:50:56.404Z,97595.66
2023-10-17T23:53:25.224Z,97587.41
2023-10-17T23:56:04.696Z,97587.38
2023-10-17T23:58:33.291Z,97586.66
